Time;durP1;ratioP1;P1;durP2;ratioP2;P2;SDS_P1;SDS_P2;PMS_P1;PMS_P2;Temp;Humidity;BMP_temperature;BMP_pressure;BME280_temperature;BME280_humidity;BME280_pressure;Samples;Min_cycle;Max_cycle;Signal;HPM_P1;HPM_P2
2021/01/30 04:01:07;;;;;;;2.28;2.17;;;7.00;94.00;;;;;;5551138;23;89676;-84
2021/01/30 04:03:33;;;;;;;1.92;1.83;;;7.00;94.10;;;;;;4963987;28;87042;-80
2021/01/30 04:05:59;;;;;;;3.70;2.15;;;7.00;94.60;;;;;;4975189;28;88301;-84
2021/01/30 04:08:25;;;;;;;2.33;2.20;;;7.00;94.50;;;;;;4990864;28;87052;-82
2021/01/30 04:10:50;;;;;;;2.03;1.92;;;7.00;94.50;;;;;;4986867;28;86866;-81
2021/01/30 04:13:18;;;;;;;2.08;1.92;;;7.00;94.10;;;;;;4968812;28;87031;-83
2021/01/30 04:15:45;;;;;;;2.15;1.95;;;7.00;94.10;;;;;;4971788;28;87929;-83
2021/01/30 04:18:12;;;;;;;2.60;2.40;;;7.00;94.40;;;;;;4979456;28;87186;-82
2021/01/30 04:20:39;;;;;;;2.17;1.95;;;6.90;95.10;;;;;;4954736;28;86835;-83
2021/01/30 04:23:06;;;;;;;2.20;2.10;;;6.90;94.90;;;;;;4970737;28;86797;-83
2021/01/30 04:25:32;;;;;;;2.05;1.95;;;6.90;94.80;;;;;;4964363;28;89944;-82
2021/01/30 04:27:58;;;;;;;2.00;1.90;;;6.90;94.90;;;;;;4971765;28;87456;-83
2021/01/30 04:30:26;;;;;;;2.85;2.25;;;6.80;95.40;;;;;;4985471;28;86860;-83
2021/01/30 04:32:52;;;;;;;2.20;2.10;;;6.80;95.30;;;;;;4980473;28;85904;-83
2021/01/30 04:35:33;;;;;;;1.80;1.70;;;6.80;94.70;;;;;;4988457;28;88126;-83
2021/01/30 04:37:59;;;;;;;2.28;2.17;;;6.80;95.10;;;;;;4976740;28;86859;-83
2021/01/30 04:40:40;;;;;;;2.13;2.03;;;6.80;94.70;;;;;;4975014;28;87921;-83
2021/01/30 04:43:15;;;;;;;2.45;2.20;;;6.90;94.30;;;;;;4971563;28;87719;-83
2021/01/30 04:46:06;;;;;;;2.30;2.20;;;6.90;94.20;;;;;;4972777;28;88109;-82
2021/01/30 04:48:51;;;;;;;2.63;2.25;;;6.90;94.30;;;;;;4970407;28;87142;-83
2021/01/30 04:51:35;;;;;;;2.55;2.03;;;6.90;93.80;;;;;;4951971;28;86980;-83
2021/01/30 04:54:08;;;;;;;2.28;0.98;;;6.90;93.20;;;;;;4969903;28;86526;-82
2021/01/30 04:56:53;;;;;;;2.42;2.22;;;7.00;93.20;;;;;;4984424;28;87603;-82
2021/01/30 04:59:46;;;;;;;2.38;2.10;;;7.00;93.20;;;;;;4964940;28;86861;-82
2021/01/30 05:02:21;;;;;;;2.97;2.70;;;7.10;92.80;;;;;;4958735;28;86347;-82
2021/01/30 05:04:50;;;;;;;2.95;2.75;;;7.10;93.20;;;;;;4956753;28;86750;-85
2021/01/30 05:07:37;;;;;;;2.58;2.47;;;7.00;93.20;;;;;;4946928;28;91143;-82
2021/01/30 05:10:27;;;;;;;2.17;2.08;;;7.10;93.30;;;;;;4939279;28;87612;-82
2021/01/30 05:13:00;;;;;;;2.70;2.10;;;7.00;94.10;;;;;;4941969;28;86728;-83
2021/01/30 05:15:44;;;;;;;2.42;2.33;;;6.90;94.70;;;;;;4953512;28;86228;-82
2021/01/30 05:18:18;;;;;;;2.28;2.15;;;6.80;95.20;;;;;;4945987;28;87345;-82
2021/01/30 05:20:53;;;;;;;2.10;2.00;;;6.60;95.20;;;;;;4947079;28;87319;-82
2021/01/30 05:23:20;;;;;;;2.03;1.92;;;6.50;96.00;;;;;;4943249;28;87315;-82
2021/01/30 05:25:52;;;;;;;2.55;2.25;;;6.50;96.00;;;;;;4947578;28;86232;-83
2021/01/30 05:28:29;;;;;;;2.03;1.92;;;6.40;96.40;;;;;;4941810;28;88348;-81
2021/01/30 05:31:09;;;;;;;2.22;1.80;;;6.40;95.50;;;;;;4935195;28;86649;-84
2021/01/30 05:34:05;;;;;;;3.08;1.95;;;6.50;95.80;;;;;;4937290;28;87577;-80
2021/01/30 05:36:51;;;;;;;2.15;2.03;;;6.50;96.00;;;;;;4940416;28;88501;-81
2021/01/30 05:39:47;;;;;;;2.10;2.00;;;6.50;96.10;;;;;;4961873;28;87360;-80
2021/01/30 05:42:19;;;;;;;2.47;2.28;;;6.50;95.40;;;;;;4950520;28;86458;-83
2021/01/30 05:45:12;;;;;;;2.20;2.10;;;6.60;95.30;;;;;;4953541;28;86102;-80
2021/01/30 05:47:38;;;;;;;2.42;2.33;;;6.60;95.50;;;;;;4916025;28;87225;-81
2021/01/30 05:50:16;;;;;;;2.33;2.22;;;6.60;95.40;;;;;;4953090;28;86503;-81
2021/01/30 05:52:42;;;;;;;2.25;2.05;;;6.60;95.50;;;;;;4967409;28;87423;-81
2021/01/30 05:55:25;;;;;;;2.45;2.25;;;6.50;95.60;;;;;;4952893;28;86928;-82
2021/01/30 05:57:51;;;;;;;2.50;2.30;;;6.60;95.30;;;;;;4950095;28;87794;-83
2021/01/30 06:00:19;;;;;;;1.50;1.50;;;6.50;95.30;;;;;;4945013;28;90759;-81
2021/01/30 06:03:04;;;;;;;2.38;2.28;;;6.50;95.40;;;;;;4947188;28;93306;-80
2021/01/30 06:06:07;;;;;;;2.15;2.05;;;6.50;95.70;;;;;;4947799;28;86773;-82
2021/01/30 06:08:33;;;;;;;2.20;2.10;;;6.40;96.00;;;;;;4945574;28;87002;-82
2021/01/30 06:11:12;;;;;;;1.80;1.70;;;6.40;96.00;;;;;;4946671;28;87081;-83
2021/01/30 06:14:00;;;;;;;2.10;2.00;;;6.40;95.80;;;;;;4951642;28;86405;-83
2021/01/30 06:16:35;;;;;;;2.50;2.30;;;6.30;96.40;;;;;;4945471;28;87069;-82
2021/01/30 06:19:14;;;;;;;2.50;2.40;;;6.30;96.90;;;;;;4947029;28;87530;-83
2021/01/30 06:21:41;;;;;;;2.75;2.42;;;6.20;97.30;;;;;;4942459;28;87184;-82
2021/01/30 06:24:28;;;;;;;1.98;1.33;;;6.20;97.90;;;;;;4945447;28;86900;-81
2021/01/30 06:26:55;;;;;;;2.20;2.10;;;6.20;98.20;;;;;;4941160;28;88041;-82
2021/01/30 06:29:36;;;;;;;3.10;2.85;;;6.10;98.30;;;;;;4947200;28;86745;-81
2021/01/30 06:32:29;;;;;;;2.45;2.35;;;6.00;98.50;;;;;;4945821;28;87125;-82
2021/01/30 06:35:07;;;;;;;2.70;2.50;;;6.00;98.80;;;;;;4932848;28;87077;-81
2021/01/30 06:37:49;;;;;;;2.28;2.17;;;5.90;99.20;;;;;;4944857;28;86982;-81
2021/01/30 06:40:27;;;;;;;2.75;2.55;;;5.80;99.60;;;;;;4947121;28;86840;-81
2021/01/30 06:43:04;;;;;;;2.70;2.50;;;5.80;99.90;;;;;;4934118;28;87048;-81
2021/01/30 06:45:37;;;;;;;2.85;2.65;;;5.70;99.90;;;;;;4937954;28;90367;-82
2021/01/30 06:48:08;;;;;;;3.33;2.95;;;5.60;99.90;;;;;;4946873;28;87010;-83
2021/01/30 06:50:37;;;;;;;1.67;1.58;;;5.60;99.90;;;;;;4947869;28;86820;-82
2021/01/30 06:53:23;;;;;;;2.95;2.75;;;5.50;99.90;;;;;;4940083;28;89064;-81
2021/01/30 06:55:49;;;;;;;3.53;2.67;;;5.50;99.90;;;;;;4932847;28;88878;-79
2021/01/30 06:58:35;;;;;;;2.58;2.45;;;5.40;99.90;;;;;;4945096;28;86915;-82
2021/01/30 07:01:38;;;;;;;2.92;2.72;;;5.40;99.90;;;;;;4948438;28;87285;-83
2021/01/30 07:04:04;;;;;;;2.55;2.35;;;5.40;99.90;;;;;;4967334;28;87433;-81
2021/01/30 07:06:32;;;;;;;2.20;2.10;;;5.40;99.90;;;;;;4967539;28;86937;-82
2021/01/30 07:09:13;;;;;;;2.65;2.55;;;5.40;99.90;;;;;;4962220;28;86148;-82
2021/01/30 07:11:58;;;;;;;2.73;2.43;;;5.50;99.90;;;;;;4967383;28;86707;-82
2021/01/30 07:14:39;;;;;;;2.35;2.15;;;5.50;99.90;;;;;;4955320;28;87350;-81
2021/01/30 07:17:23;;;;;;;2.60;2.38;;;5.60;99.90;;;;;;4961876;28;87502;-81
2021/01/30 07:20:07;;;;;;;2.55;2.35;;;5.60;99.90;;;;;;4963550;28;87651;-84
2021/01/30 07:22:51;;;;;;;3.67;2.67;;;5.60;99.90;;;;;;4963611;28;87070;-81
2021/01/30 07:25:26;;;;;;;2.90;2.70;;;5.60;99.90;;;;;;4963677;28;86938;-78
2021/01/30 07:27:54;;;;;;;2.95;2.80;;;5.60;99.90;;;;;;4965442;28;86712;-82
2021/01/30 07:30:46;;;;;;;2.22;2.05;;;5.60;99.90;;;;;;4968765;28;87032;-81
2021/01/30 07:33:25;;;;;;;2.65;2.08;;;5.60;99.90;;;;;;4965134;28;86923;-82
2021/01/30 07:36:02;;;;;;;2.90;2.80;;;5.60;99.90;;;;;;4969029;28;87047;-81
2021/01/30 07:38:40;;;;;;;2.63;2.42;;;5.60;99.90;;;;;;4974033;28;87511;-82
2021/01/30 07:41:16;;;;;;;4.22;2.80;;;5.60;99.90;;;;;;4971382;28;87115;-83
2021/01/30 07:43:58;;;;;;;3.13;2.92;;;5.60;99.90;;;;;;4969505;28;86923;-82
2021/01/30 07:46:33;;;;;;;2.38;2.20;;;5.60;99.90;;;;;;4969400;28;87543;-82
2021/01/30 07:49:12;;;;;;;3.17;2.53;;;5.60;99.90;;;;;;4963650;28;87016;-81
2021/01/30 07:52:19;;;;;;;3.08;2.88;;;5.60;99.90;;;;;;4967204;28;86878;-78
2021/01/30 07:54:49;;;;;;;2.80;2.70;;;5.60;99.90;;;;;;4967424;28;87633;-77
2021/01/30 07:57:44;;;;;;;3.95;3.25;;;5.60;99.90;;;;;;4965937;28;86598;-77
2021/01/30 08:00:25;;;;;;;3.35;3.15;;;5.70;99.80;;;;;;4975895;28;86729;-76
2021/01/30 08:03:13;;;;;;;3.10;2.90;;;5.60;99.90;;;;;;4964342;28;86996;-80
2021/01/30 08:06:12;;;;;;;3.10;2.90;;;5.60;99.90;;;;;;4975467;28;86527;-80
2021/01/30 08:08:56;;;;;;;3.85;3.55;;;5.70;99.90;;;;;;4981909;28;88123;-79
2021/01/30 08:11:31;;;;;;;3.17;2.97;;;5.80;99.90;;;;;;4960967;28;88674;-82
2021/01/30 08:14:05;;;;;;;4.03;2.80;;;5.80;99.60;;;;;;4960071;28;87677;-82
2021/01/30 08:16:39;;;;;;;2.92;2.42;;;5.90;99.50;;;;;;4954277;28;87491;-81
2021/01/30 08:19:10;;;;;;;3.70;3.40;;;6.00;99.50;;;;;;4958868;28;87427;-80
2021/01/30 08:21:39;;;;;;;4.57;3.33;;;6.00;99.20;;;;;;4958256;28;86570;-80
2021/01/30 08:24:37;;;;;;;4.05;2.95;;;6.20;99.30;;;;;;4955639;28;87317;-81
2021/01/30 08:27:09;;;;;;;3.45;3.15;;;6.40;99.60;;;;;;4912216;28;87552;-81
2021/01/30 08:29:40;;;;;;;4.18;3.53;;;6.70;98.40;;;;;;4953575;28;88048;-81
2021/01/30 08:32:33;;;;;;;3.33;3.13;;;6.70;97.40;;;;;;4957833;28;86958;-84
2021/01/30 08:35:21;;;;;;;2.88;2.65;;;7.00;97.20;;;;;;4960060;28;87373;-83
2021/01/30 08:37:58;;;;;;;5.60;3.70;;;7.20;96.70;;;;;;4957567;28;86524;-83
2021/01/30 08:40:43;;;;;;;3.35;3.10;;;7.30;95.40;;;;;;4956800;28;88688;-85
2021/01/30 08:43:31;;;;;;;3.50;3.20;;;7.10;95.30;;;;;;4952215;28;91569;-83
2021/01/30 08:46:21;;;;;;;3.72;3.42;;;7.20;95.50;;;;;;4947946;28;87178;-84
2021/01/30 08:49:02;;;;;;;3.20;3.00;;;7.30;95.40;;;;;;4957109;28;87266;-84
2021/01/30 08:51:28;;;;;;;3.17;2.97;;;7.30;95.30;;;;;;4957899;28;88158;-83
2021/01/30 08:53:53;;;;;;;2.75;2.55;;;7.40;94.90;;;;;;4956221;28;86359;-81
2021/01/30 08:56:49;;;;;;;2.95;2.75;;;7.40;94.90;;;;;;4961868;28;87020;-83
2021/01/30 08:59:41;;;;;;;3.33;3.03;;;7.20;94.20;;;;;;4964355;28;86125;-85
2021/01/30 09:02:09;;;;;;;3.67;3.42;;;7.20;95.40;;;;;;4975446;28;87928;-85
2021/01/30 09:05:10;;;;;;;3.35;3.10;;;7.20;94.60;;;;;;4984073;28;87229;-83
2021/01/30 09:07:45;;;;;;;3.63;3.03;;;7.20;94.90;;;;;;4960039;28;87191;-86
2021/01/30 09:10:40;;;;;;;4.05;3.75;;;7.20;95.10;;;;;;4966196;28;87327;-88
2021/01/30 09:13:20;;;;;;;5.15;3.92;;;7.10;95.90;;;;;;4977908;28;86952;-87
2021/01/30 09:16:02;;;;;;;4.53;4.13;;;7.10;95.80;;;;;;4962364;28;87836;-87
2021/01/30 09:18:31;;;;;;;3.67;3.30;;;7.20;96.60;;;;;;4965507;28;87647;-87
2021/01/30 09:21:29;;;;;;;3.42;3.22;;;7.40;95.80;;;;;;4978569;28;86965;-87
2021/01/30 09:24:19;;;;;;;3.35;3.10;;;7.40;94.90;;;;;;4964189;28;87002;-87
2021/01/30 09:27:00;;;;;;;3.38;3.08;;;7.50;93.30;;;;;;4979448;28;88781;-88
2021/01/30 09:29:44;;;;;;;3.22;2.92;;;7.90;92.70;;;;;;4980290;28;87100;-87
2021/01/30 09:32:13;;;;;;;2.63;2.42;;;7.80;92.80;;;;;;4965005;28;87041;-79
2021/01/30 09:34:46;;;;;;;3.05;2.83;;;8.00;93.60;;;;;;4973230;28;88544;-85
2021/01/30 09:37:38;;;;;;;3.25;2.88;;;7.90;91.80;;;;;;4955817;28;88440;-85
2021/01/30 09:40:10;;;;;;;5.70;3.97;;;7.80;93.00;;;;;;4975062;28;86969;-85
2021/01/30 09:42:37;;;;;;;4.35;3.80;;;7.80;93.40;;;;;;4971768;28;87112;-85
2021/01/30 09:45:15;;;;;;;4.10;2.95;;;7.80;92.80;;;;;;4962178;28;88434;-84
2021/01/30 09:47:50;;;;;;;3.70;3.40;;;7.80;92.90;;;;;;4969913;28;87914;-87
2021/01/30 09:50:38;;;;;;;3.00;2.80;;;7.90;92.60;;;;;;4944516;28;87182;-86
2021/01/30 09:53:20;;;;;;;2.65;2.40;;;8.10;92.30;;;;;;4990927;28;85997;-83
2021/01/30 09:55:55;;;;;;;3.35;3.05;;;8.20;91.20;;;;;;4959131;28;89043;-85
2021/01/30 09:58:22;;;;;;;4.78;3.20;;;7.90;91.60;;;;;;4979128;28;86874;-85
2021/01/30 10:00:48;;;;;;;3.22;2.80;;;7.80;92.10;;;;;;4990953;28;87569;-84
2021/01/30 10:03:43;;;;;;;3.05;2.85;;;7.90;92.90;;;;;;4995134;28;87546;-83
2021/01/30 10:06:13;;;;;;;3.40;3.03;;;7.80;93.00;;;;;;4994553;28;86554;-85
2021/01/30 10:08:41;;;;;;;3.75;3.38;;;7.60;92.70;;;;;;4986381;28;89005;-85
2021/01/30 10:11:13;;;;;;;3.10;2.85;;;7.50;93.10;;;;;;4953193;28;87032;-85
2021/01/30 10:14:00;;;;;;;3.15;2.95;;;7.40;93.30;;;;;;4967797;28;87041;-87
2021/01/30 10:16:27;;;;;;;3.10;2.90;;;7.50;92.50;;;;;;4965024;28;88487;-86
2021/01/30 10:18:59;;;;;;;2.97;2.78;;;7.30;92.70;;;;;;4979589;28;87299;-87
2021/01/30 10:21:37;;;;;;;2.33;2.13;;;7.30;93.00;;;;;;4960583;28;86324;-87
2021/01/30 10:24:31;;;;;;;3.05;2.85;;;7.30;92.90;;;;;;4976520;28;86800;-86
2021/01/30 10:27:15;;;;;;;2.85;2.65;;;7.40;93.00;;;;;;4975981;28;88430;-84
2021/01/30 10:29:43;;;;;;;2.90;2.70;;;7.70;92.40;;;;;;4980628;28;88040;-86
2021/01/30 10:32:42;;;;;;;3.15;2.67;;;7.90;92.30;;;;;;4983317;28;86955;-86
2021/01/30 10:35:33;;;;;;;3.63;3.33;;;8.00;92.40;;;;;;4966164;28;87004;-86
2021/01/30 10:38:06;;;;;;;4.55;3.17;;;8.10;92.10;;;;;;4956963;28;91237;-86
2021/01/30 10:40:36;;;;;;;3.53;3.33;;;8.40;93.60;;;;;;4973946;28;87271;-85
2021/01/30 10:43:06;;;;;;;3.78;3.47;;;8.90;92.30;;;;;;4974828;28;86286;-87
2021/01/30 10:45:34;;;;;;;2.67;2.47;;;8.80;92.50;;;;;;4958599;28;86025;-86
2021/01/30 10:48:13;;;;;;;4.18;3.78;;;9.00;88.90;;;;;;4953177;28;90091;-86
2021/01/30 10:50:43;;;;;;;3.38;3.08;;;9.00;89.00;;;;;;4956800;28;89800;-85
2021/01/30 10:53:21;;;;;;;6.65;4.82;;;8.70;88.20;;;;;;4973210;28;88699;-86
2021/01/30 10:55:48;;;;;;;3.90;3.58;;;9.00;89.00;;;;;;4969253;28;86704;-84
2021/01/30 10:58:18;;;;;;;3.78;3.28;;;9.30;87.10;;;;;;4970683;28;87409;-85
2021/01/30 11:01:19;;;;;;;3.20;3.00;;;9.30;85.40;;;;;;4973368;28;87802;-86
2021/01/30 11:03:55;;;;;;;4.03;3.45;;;9.00;85.90;;;;;;4971543;28;88504;-84
2021/01/30 11:06:36;;;;;;;3.28;2.95;;;8.90;88.90;;;;;;4974388;28;87041;-85
2021/01/30 11:09:25;;;;;;;4.55;4.15;;;9.00;86.60;;;;;;4970896;28;88782;-84
2021/01/30 11:12:08;;;;;;;3.92;3.63;;;9.00;86.30;;;;;;4972714;28;87470;-84
2021/01/30 11:14:34;;;;;;;4.78;3.85;;;8.70;86.60;;;;;;4954186;28;87258;-83
2021/01/30 11:17:02;;;;;;;5.85;4.75;;;8.60;86.80;;;;;;4970963;28;87707;-86
2021/01/30 11:19:31;;;;;;;2.67;2.47;;;8.50;87.60;;;;;;4968387;28;89358;-85
2021/01/30 11:22:18;;;;;;;3.35;3.15;;;8.60;87.20;;;;;;4977979;28;87354;-86
2021/01/30 11:24:49;;;;;;;3.20;3.00;;;8.60;87.20;;;;;;4985868;28;87029;-83
2021/01/30 11:27:45;;;;;;;4.55;3.38;;;8.80;88.40;;;;;;4959974;28;87299;-83
2021/01/30 11:30:17;;;;;;;5.43;3.95;;;9.00;87.40;;;;;;4980091;28;88016;-83
2021/01/30 11:32:48;;;;;;;4.00;3.60;;;9.00;86.30;;;;;;4992847;28;86747;-82
2021/01/30 11:35:19;;;;;;;3.63;3.33;;;9.10;87.40;;;;;;4974940;28;86719;-82
2021/01/30 11:37:46;;;;;;;3.55;3.25;;;9.00;86.80;;;;;;4978308;28;86328;-84
2021/01/30 11:40:13;;;;;;;5.05;3.42;;;8.90;87.90;;;;;;4981177;28;86839;-84
2021/01/30 11:42:40;;;;;;;4.53;3.30;;;8.80;86.50;;;;;;4958268;28;87356;-83
2021/01/30 11:45:07;;;;;;;4.05;3.70;;;8.80;86.40;;;;;;4971394;28;88639;-83
2021/01/30 11:47:33;;;;;;;4.05;3.53;;;8.80;87.20;;;;;;4971757;28;87467;-87
2021/01/30 11:49:59;;;;;;;3.47;3.17;;;8.90;87.80;;;;;;4973191;28;87176;-86
2021/01/30 11:52:27;;;;;;;3.58;3.28;;;9.00;87.50;;;;;;4974299;28;87767;-90
2021/01/30 11:54:53;;;;;;;4.30;3.53;;;9.00;86.50;;;;;;4974137;28;87980;-86
2021/01/30 11:57:20;;;;;;;4.90;4.40;;;8.90;88.80;;;;;;4971487;28;87680;-87
2021/01/30 11:59:46;;;;;;;5.93;4.88;;;8.80;89.90;;;;;;4976235;28;87528;-86
2021/01/30 12:02:28;;;;;;;5.63;4.57;;;8.80;90.00;;;;;;4972018;28;87221;-83
2021/01/30 12:04:54;;;;;;;6.88;4.40;;;8.70;90.30;;;;;;4971175;28;86953;-85
2021/01/30 12:07:20;;;;;;;5.70;4.80;;;8.60;90.70;;;;;;4975512;28;87235;-83
2021/01/30 12:09:45;;;;;;;5.13;4.53;;;8.70;90.70;;;;;;4972292;28;87735;-85
2021/01/30 12:12:11;;;;;;;5.32;4.30;;;8.60;90.90;;;;;;4971305;28;89554;-87
2021/01/30 12:14:37;;;;;;;6.70;5.18;;;8.60;91.70;;;;;;4971361;28;87011;-83
2021/01/30 12:17:03;;;;;;;5.75;5.13;;;8.50;91.60;;;;;;4974109;28;86926;-84
2021/01/30 12:19:29;;;;;;;5.75;4.72;;;8.50;92.60;;;;;;4971363;28;87423;-83
2021/01/30 12:21:55;;;;;;;5.97;5.47;;;8.50;92.00;;;;;;4974230;28;87005;-84
2021/01/30 12:24:20;;;;;;;6.38;5.75;;;8.70;92.40;;;;;;4973514;28;87206;-85
2021/01/30 12:26:46;;;;;;;6.75;6.15;;;8.80;92.60;;;;;;4972042;28;86196;-85
2021/01/30 12:29:12;;;;;;;6.78;6.07;;;8.70;93.00;;;;;;4973323;28;87613;-84
2021/01/30 12:31:37;;;;;;;9.85;6.90;;;8.70;93.50;;;;;;4968562;28;87339;-84
2021/01/30 12:34:03;;;;;;;8.07;5.90;;;8.50;93.90;;;;;;4969836;28;88693;-82
2021/01/30 12:36:29;;;;;;;5.78;5.22;;;8.30;94.60;;;;;;4972117;28;88336;-83
2021/01/30 12:38:54;;;;;;;5.65;4.88;;;8.20;95.30;;;;;;4972296;28;87581;-85
2021/01/30 12:41:20;;;;;;;8.00;5.82;;;8.10;96.20;;;;;;4972426;28;87696;-85
2021/01/30 12:43:46;;;;;;;9.25;5.63;;;8.20;96.60;;;;;;4968467;28;87358;-81
2021/01/30 12:46:12;;;;;;;6.70;5.30;;;8.30;95.90;;;;;;4970308;28;87562;-83
2021/01/30 12:48:38;;;;;;;6.57;5.32;;;8.40;95.80;;;;;;4972300;28;88563;-84
2021/01/30 12:51:04;;;;;;;8.80;6.75;;;8.40;97.20;;;;;;4971164;28;88271;-81
2021/01/30 12:53:30;;;;;;;8.18;5.80;;;8.40;97.80;;;;;;4970244;28;88899;-83
2021/01/30 12:55:56;;;;;;;6.68;5.82;;;8.40;96.80;;;;;;4974609;28;86931;-82
2021/01/30 12:58:28;;;;;;;11.27;9.90;;;8.30;97.10;;;;;;4952098;28;92101;-81
2021/01/30 13:00:58;;;;;;;9.18;6.68;;;8.20;98.30;;;;;;4974891;28;88869;-80
2021/01/30 13:03:27;;;;;;;7.10;5.83;;;8.00;98.80;;;;;;4979995;28;86943;-81
2021/01/30 13:05:53;;;;;;;10.45;7.60;;;7.80;98.20;;;;;;4983437;28;87313;-83
2021/01/30 13:08:20;;;;;;;8.45;4.65;;;7.70;99.60;;;;;;4977890;28;88010;-83
2021/01/30 13:10:47;;;;;;;4.55;3.75;;;7.40;99.30;;;;;;4959572;28;87151;-86
2021/01/30 13:13:13;;;;;;;4.43;3.60;;;7.20;99.90;;;;;;4983175;28;87179;-83
2021/01/30 13:15:40;;;;;;;5.05;4.10;;;7.00;99.90;;;;;;4981287;28;87638;-85
2021/01/30 13:18:06;;;;;;;5.80;3.63;;;6.80;99.90;;;;;;4967364;28;87255;-84
2021/01/30 13:20:32;;;;;;;4.05;3.28;;;6.60;99.90;;;;;;4985367;28;87156;-85
2021/01/30 13:23:01;;;;;;;3.65;3.00;;;;;;;;;;4964241;28;88485;-85
2021/01/30 13:25:27;;;;;;;4.30;3.75;;;6.30;99.90;;;;;;4979442;28;87507;-83
2021/01/30 13:27:53;;;;;;;3.45;3.25;;;6.10;99.90;;;;;;4978470;28;87183;-86
2021/01/30 13:30:26;;;;;;;3.72;3.17;;;6.10;99.90;;;;;;4982493;28;88199;-80
2021/01/30 13:32:54;;;;;;;4.30;3.15;;;6.00;99.90;;;;;;4959813;28;87054;-83
2021/01/30 13:35:26;;;;;;;5.47;3.22;;;6.00;99.90;;;;;;4986002;28;86815;-87
2021/01/30 13:37:53;;;;;;;4.25;3.85;;;5.90;99.90;;;;;;4970921;28;88344;-86
2021/01/30 13:40:23;;;;;;;3.75;3.38;;;6.00;99.90;;;;;;4984140;28;87586;-85
2021/01/30 13:42:51;;;;;;;7.03;4.55;;;6.00;99.90;;;;;;4978178;28;86452;-86
2021/01/30 13:45:19;;;;;;;4.07;3.05;;;6.00;99.90;;;;;;4978462;28;87114;-85
2021/01/30 13:47:45;;;;;;;3.80;3.38;;;6.10;99.90;;;;;;4987881;28;88280;-86
2021/01/30 13:50:11;;;;;;;3.20;2.90;;;6.10;99.90;;;;;;4975065;28;89897;-89
2021/01/30 13:52:37;;;;;;;4.18;3.47;;;6.10;99.90;;;;;;4966334;28;87549;-81
2021/01/30 13:55:04;;;;;;;3.15;2.67;;;6.20;99.90;;;;;;4969849;28;86641;-81
2021/01/30 13:57:30;;;;;;;3.30;3.00;;;6.20;99.90;;;;;;4970089;28;87629;-83
2021/01/30 13:59:56;;;;;;;11.05;7.47;;;6.20;99.90;;;;;;4974225;28;86727;-83
2021/01/30 14:02:22;;;;;;;2.85;2.65;;;6.20;99.90;;;;;;4971280;28;87308;-85
2021/01/30 14:04:48;;;;;;;8.68;4.88;;;6.30;99.90;;;;;;4974962;28;86241;-83
2021/01/30 14:07:14;;;;;;;2.50;2.40;;;6.30;99.90;;;;;;4980981;28;87433;-86
2021/01/30 14:09:39;;;;;;;2.67;2.47;;;6.30;99.90;;;;;;4982332;28;88783;-79
2021/01/30 14:12:06;;;;;;;2.35;2.25;;;6.30;99.90;;;;;;4985604;28;87628;-80
2021/01/30 14:14:32;;;;;;;2.50;2.30;;;6.20;99.90;;;;;;4985028;28;86771;-82
2021/01/30 14:16:57;;;;;;;2.47;2.20;;;6.20;99.90;;;;;;4977575;28;87501;-82
2021/01/30 14:19:23;;;;;;;1.95;1.85;;;6.20;99.90;;;;;;4983263;28;86911;-82
2021/01/30 14:21:49;;;;;;;2.10;2.00;;;6.10;99.90;;;;;;4979609;28;87582;-82
2021/01/30 14:24:15;;;;;;;2.00;1.90;;;6.10;99.90;;;;;;4965200;28;87147;-83
2021/01/30 14:26:47;;;;;;;2.75;2.55;;;6.10;99.90;;;;;;4979900;28;87356;-85
2021/01/30 14:29:13;;;;;;;1.67;1.58;;;6.10;99.90;;;;;;4975782;28;87376;-83
2021/01/30 14:31:39;;;;;;;1.95;1.85;;;6.10;99.90;;;;;;4958879;28;87252;-82
2021/01/30 14:34:04;;;;;;;2.25;2.15;;;6.00;99.90;;;;;;4978090;28;87286;-86
2021/01/30 14:36:30;;;;;;;4.70;3.05;;;6.00;99.90;;;;;;4959150;28;89071;-83
2021/01/30 14:38:56;;;;;;;4.15;3.15;;;;;;;;;;4977580;28;87134;-86
2021/01/30 14:41:23;;;;;;;3.90;1.92;;;5.90;99.90;;;;;;4973862;28;86703;-83
2021/01/30 14:43:48;;;;;;;3.50;2.42;;;5.90;99.90;;;;;;4968837;28;87414;-82
2021/01/30 14:46:14;;;;;;;10.52;6.10;;;5.90;99.90;;;;;;4970661;28;87582;-84
2021/01/30 14:48:40;;;;;;;3.47;3.17;;;5.90;99.90;;;;;;4970251;28;87062;-83
2021/01/30 14:51:07;;;;;;;7.68;4.50;;;5.90;99.90;;;;;;4975384;28;86807;-83
2021/01/30 14:53:33;;;;;;;4.15;3.50;;;;;;;;;;4972863;28;85973;-84
2021/01/30 14:55:58;;;;;;;3.40;3.10;;;5.90;99.90;;;;;;4969619;28;87430;-85
2021/01/30 14:58:24;;;;;;;4.03;3.40;;;5.90;99.90;;;;;;4969367;28;87080;-84
2021/01/30 15:00:50;;;;;;;2.95;2.67;;;5.90;99.90;;;;;;4960942;28;88508;-84
2021/01/30 15:03:15;;;;;;;4.18;3.25;;;5.90;99.90;;;;;;4936970;28;86981;-82
2021/01/30 15:05:44;;;;;;;3.45;2.60;;;5.90;99.90;;;;;;4939202;28;88466;-86
2021/01/30 15:08:10;;;;;;;3.40;3.10;;;5.80;99.90;;;;;;4938270;28;87465;-87
2021/01/30 15:10:36;;;;;;;9.98;4.75;;;5.80;99.90;;;;;;4936210;28;87385;-88
2021/01/30 15:13:09;;;;;;;4.32;3.95;;;5.70;99.90;;;;;;4934431;28;87295;-86
2021/01/30 15:15:35;;;;;;;2.70;2.50;;;5.70;99.90;;;;;;4935843;28;87871;-85
2021/01/30 15:18:00;;;;;;;2.75;2.60;;;5.70;99.90;;;;;;4910097;28;88480;-85
2021/01/30 15:20:27;;;;;;;2.97;2.78;;;5.70;99.90;;;;;;4938424;28;86988;-87
2021/01/30 15:22:52;;;;;;;5.47;4.57;;;5.60;99.90;;;;;;4939272;28;86352;-87
2021/01/30 15:25:20;;;;;;;4.78;4.38;;;5.60;99.90;;;;;;4932207;28;89969;-85
2021/01/30 15:27:46;;;;;;;5.63;3.80;;;5.60;99.90;;;;;;4932925;28;88506;-85
2021/01/30 15:30:13;;;;;;;7.80;5.15;;;5.60;99.90;;;;;;4933264;28;87743;-85
2021/01/30 15:32:39;;;;;;;5.50;3.15;;;5.60;99.90;;;;;;4931317;28;86495;-85
2021/01/30 15:35:06;;;;;;;6.05;4.40;;;5.50;99.90;;;;;;4933392;28;88680;-84
2021/01/30 15:37:32;;;;;;;3.40;3.17;;;5.50;99.90;;;;;;4931668;28;87864;-84
2021/01/30 15:39:58;;;;;;;13.25;6.78;;;5.50;99.90;;;;;;4929764;28;87076;-84
2021/01/30 15:42:25;;;;;;;6.07;3.90;;;;;;;;;;4935337;28;86737;-83
2021/01/30 15:44:50;;;;;;;7.78;5.68;;;5.40;99.90;;;;;;4930979;28;87628;-84
2021/01/30 15:47:17;;;;;;;5.05;4.65;;;;;;;;;;4932539;28;87004;-84
2021/01/30 15:49:42;;;;;;;3.47;3.28;;;5.40;99.90;;;;;;4931582;28;88245;-82
2021/01/30 15:52:09;;;;;;;3.83;3.28;;;5.40;99.90;;;;;;4932973;28;87490;-84
2021/01/30 15:54:34;;;;;;;5.28;4.78;;;5.40;99.90;;;;;;4930241;28;87665;-81
2021/01/30 15:57:00;;;;;;;7.63;5.05;;;5.40;99.90;;;;;;4930417;28;88512;-81
2021/01/30 15:59:26;;;;;;;6.60;4.20;;;5.40;99.90;;;;;;4933228;28;86961;-82
2021/01/30 16:03:15;;;;;;;;;;;5.40;99.90;;;;;;3066071;28;78686350;-82
2021/01/30 16:07:20;;;;;;;;;;;5.30;99.90;;;;;;3;79530963;82534711;-82
2021/01/30 16:11:16;;;;;;;;;;;5.30;99.90;;;;;;3;72029554;79528539;-83
2021/01/30 16:15:12;;;;;;;;;;;5.30;99.90;;;;;;3;72024988;82529149;-80
2021/01/30 16:19:11;;;;;;;;;;;5.30;99.90;;;;;;3;82532646;82534380;-81
2021/01/30 16:23:20;;;;;;;;;;;5.20;99.90;;;;;;3;79530025;84030877;-81
2021/01/30 16:27:14;;;;;;;;;;;5.20;99.90;;;;;;3;72029214;79533934;-81
2021/01/30 16:31:09;;;;;;;;;;;5.20;99.90;;;;;;3;72026827;82527942;-83
2021/01/30 16:35:07;;;;;;;;;;;5.20;99.90;;;;;;3;82529174;82530417;-80
2021/01/30 16:39:04;;;;;;;;;;;5.20;99.90;;;;;;3;79528187;82528354;-81
2021/01/30 16:42:59;;;;;;;;;;;5.20;99.90;;;;;;3;72024232;79528705;-81
2021/01/30 16:46:53;;;;;;;;;;;5.20;99.90;;;;;;3;72027961;82528326;-82
2021/01/30 16:50:51;;;;;;;;;;;5.20;99.90;;;;;;3;82527897;82532319;-82
2021/01/30 16:54:56;;;;;;;;;;;5.20;99.90;;;;;;3;79530015;82530962;-82
2021/01/30 16:58:51;;;;;;;;;;;5.20;99.90;;;;;;3;72025417;79528963;-82
2021/01/30 17:02:45;;;;;;;;;;;5.20;99.90;;;;;;3;72024755;82534296;-83
2021/01/30 17:06:43;;;;;;;;;;;5.20;99.90;;;;;;3;82527710;82530827;-84
2021/01/30 17:10:47;;;;;;;;;;;5.20;99.90;;;;;;3;79530982;82529012;-82
2021/01/30 17:14:16;;;;;;;;;;;5.20;99.90;;;;;;3;72022727;79453188;-83
2021/01/30 17:16:42;;;;;;;12.60;4.65;;;5.20;99.90;;;;;;4968709;28;87695;-83
2021/01/30 17:19:08;;;;;;;5.15;3.97;;;5.20;99.90;;;;;;4968556;28;87315;-83
2021/01/30 17:21:33;;;;;;;4.70;4.25;;;5.20;99.90;;;;;;4969779;28;88079;-83
2021/01/30 17:23:59;;;;;;;6.22;4.90;;;5.20;99.90;;;;;;4972430;28;86443;-82
2021/01/30 17:26:25;;;;;;;8.38;5.65;;;5.20;99.90;;;;;;4964577;28;87965;-83
2021/01/30 17:28:51;;;;;;;6.22;4.43;;;5.20;99.90;;;;;;4963124;28;86745;-82
2021/01/30 17:31:17;;;;;;;8.00;6.47;;;5.20;99.90;;;;;;4958815;28;88068;-83
2021/01/30 17:34:50;;;;;;;;;;;5.20;99.90;;;;;;4289886;28;80804934;-82
2021/01/30 17:38:55;;;;;;;;;;;5.20;99.90;;;;;;3;79531161;82528483;-82
2021/01/30 17:42:49;;;;;;;;;;;5.10;99.90;;;;;;3;72026202;79525650;-82
2021/01/30 17:46:44;;;;;;;;;;;5.10;99.90;;;;;;3;72024611;82528944;-82
2021/01/30 17:50:42;;;;;;;;;;;5.10;99.90;;;;;;3;82528597;82530255;-82
2021/01/30 17:54:47;;;;;;;;;;;5.10;99.90;;;;;;3;79529070;82531621;-84
2021/01/30 17:57:13;;;;;;;7.50;6.45;;;5.10;99.90;;;;;;745803;28;72025828;-86
2021/01/30 17:59:39;;;;;;;4.60;4.20;;;5.00;99.90;;;;;;5037799;28;20037;-83
2021/01/30 18:02:05;;;;;;;6.82;6.15;;;5.10;99.90;;;;;;5021436;28;20098;-85
2021/01/30 18:04:31;;;;;;;7.05;5.82;;;5.10;99.90;;;;;;4819365;28;5705891;-84
2021/01/30 18:06:56;;;;;;;10.23;7.43;;;5.10;99.90;;;;;;5021942;28;20054;-82
2021/01/30 18:09:22;;;;;;;8.73;6.45;;;5.10;99.90;;;;;;5019951;28;20050;-83